Time;durP1;ratioP1;P1;durP2;ratioP2;P2;SDS_P1;SDS_P2;PMS_P1;PMS_P2;Temp;Humidity;BMP_temperature;BMP_pressure;BME280_temperature;BME280_humidity;BME280_pressure;Samples;Min_cycle;Max_cycle;Signal;HPM_P1;HPM_P2
2022/10/03 00:00:13;;;;;;;15.50;6.75;;;17.60;82.00;;;;;;5000678;28;20034;-56
2022/10/03 00:02:38;;;;;;;15.70;6.78;;;17.60;81.70;;;;;;5010607;28;20032;-56
2022/10/03 00:05:40;;;;;;;14.20;6.90;;;17.60;81.70;;;;;;5004953;28;20128;-57
2022/10/03 00:08:16;;;;;;;13.35;7.15;;;17.60;82.00;;;;;;5007870;28;20030;-57
2022/10/03 00:10:50;;;;;;;11.45;6.25;;;17.50;82.00;;;;;;5007559;28;20519;-57
2022/10/03 00:13:36;;;;;;;18.35;7.20;;;17.50;82.40;;;;;;5004284;28;20034;-56
2022/10/03 00:16:08;;;;;;;17.35;8.10;;;17.40;82.50;;;;;;5010812;28;20506;-55
2022/10/03 00:19:09;;;;;;;16.98;6.85;;;17.40;82.60;;;;;;5001487;28;20166;-57
2022/10/03 00:22:17;;;;;;;12.90;7.20;;;17.30;83.30;;;;;;4972235;28;20555;-57
2022/10/03 00:25:12;;;;;;;16.30;6.45;;;17.30;83.00;;;;;;4999229;28;20029;-57
2022/10/03 00:27:47;;;;;;;11.85;6.75;;;17.30;83.30;;;;;;4959491;28;20047;-57
2022/10/03 00:30:20;;;;;;;12.20;6.53;;;17.30;82.70;;;;;;5001000;28;20026;-57
2022/10/03 00:32:52;;;;;;;14.27;7.07;;;17.40;82.50;;;;;;4992117;28;20030;-56
2022/10/03 00:35:33;;;;;;;12.77;7.25;;;17.40;82.50;;;;;;5004006;28;20036;-59
2022/10/03 00:38:23;;;;;;;11.52;6.88;;;17.40;82.50;;;;;;5012540;28;20037;-56
2022/10/03 00:41:08;;;;;;;9.35;6.25;;;17.40;82.40;;;;;;5011014;28;20061;-56
2022/10/03 00:43:55;;;;;;;12.60;6.22;;;17.40;82.30;;;;;;5009430;28;20038;-56
2022/10/03 00:46:41;;;;;;;13.07;6.68;;;17.40;82.30;;;;;;4993045;28;20495;-59
2022/10/03 00:49:27;;;;;;;13.30;6.13;;;17.30;83.10;;;;;;4992957;28;20443;-56
2022/10/03 00:52:41;;;;;;;10.32;6.80;;;17.30;82.10;;;;;;4996637;28;20041;-56
2022/10/03 00:55:17;;;;;;;10.15;6.28;;;16.90;83.40;;;;;;4956139;28;20401;-56
2022/10/03 00:57:52;;;;;;;12.20;6.18;;;16.70;84.40;;;;;;4992984;28;20050;-56
2022/10/03 01:00:28;;;;;;;12.95;6.55;;;16.70;84.00;;;;;;5010917;28;20403;-56
2022/10/03 01:02:54;;;;;;;8.77;6.15;;;16.70;84.20;;;;;;5010712;28;20526;-56
2022/10/03 01:05:51;;;;;;;15.97;7.13;;;16.80;83.70;;;;;;5003282;28;20116;-56
2022/10/03 01:08:26;;;;;;;14.18;7.53;;;16.80;83.40;;;;;;4992552;28;20050;-56
2022/10/03 01:11:13;;;;;;;13.35;6.70;;;16.90;83.40;;;;;;4991415;28;20034;-56
2022/10/03 01:13:58;;;;;;;14.27;7.45;;;16.80;83.20;;;;;;4996864;28;20440;-56
2022/10/03 01:17:12;;;;;;;14.02;6.30;;;16.80;83.20;;;;;;5000490;28;20389;-56
2022/10/03 01:19:45;;;;;;;11.68;7.57;;;16.70;82.90;;;;;;4986932;28;20113;-56
2022/10/03 01:22:28;;;;;;;12.63;6.82;;;16.70;83.10;;;;;;4992491;28;20029;-56
2022/10/03 01:24:58;;;;;;;12.85;6.50;;;16.70;83.20;;;;;;4998210;28;20030;-58
2022/10/03 01:30:42;;;;;;;11.07;7.53;;;16.70;83.10;;;;;;5012061;28;20112;-58
2022/10/03 01:33:28;;;;;;;10.52;7.93;;;16.70;83.50;;;;;;5010491;28;20038;-58
2022/10/03 01:36:14;;;;;;;10.57;6.78;;;16.60;83.70;;;;;;4997726;28;20093;-57
2022/10/03 01:39:12;;;;;;;11.90;7.78;;;16.50;83.60;;;;;;4993216;28;20034;-57
2022/10/03 01:41:44;;;;;;;12.20;7.35;;;16.50;84.00;;;;;;4997794;28;20497;-55
2022/10/03 01:44:11;;;;;;;12.32;7.70;;;16.50;84.10;;;;;;4994942;28;20026;-57
2022/10/03 01:46:52;;;;;;;11.18;6.93;;;16.50;84.30;;;;;;5010696;28;20049;-58
2022/10/03 01:49:17;;;;;;;13.68;6.88;;;16.50;84.30;;;;;;5011646;28;20508;-58
2022/10/03 01:52:05;;;;;;;12.90;7.97;;;16.50;84.40;;;;;;4999042;28;20030;-57
2022/10/03 01:54:49;;;;;;;15.30;8.73;;;16.50;84.60;;;;;;5006184;28;20415;-57
2022/10/03 01:57:41;;;;;;;18.70;8.00;;;16.60;84.30;;;;;;5011506;28;20568;-59
2022/10/03 02:00:12;;;;;;;14.20;7.82;;;16.60;84.20;;;;;;5011402;28;20026;-56
2022/10/03 02:03:15;;;;;;;17.23;7.82;;;16.50;84.00;;;;;;5004194;28;20164;-55
2022/10/03 02:05:56;;;;;;;14.70;7.28;;;16.50;84.10;;;;;;5010105;28;20037;-56
2022/10/03 02:08:59;;;;;;;13.35;7.00;;;16.40;84.10;;;;;;5005660;28;20073;-53
2022/10/03 02:11:31;;;;;;;15.35;8.30;;;16.40;84.00;;;;;;5023714;28;20037;-56
2022/10/03 02:14:41;;;;;;;12.57;7.32;;;16.30;84.00;;;;;;5028083;28;20029;-56
2022/10/03 02:17:27;;;;;;;13.73;7.53;;;16.20;85.90;;;;;;4988635;28;20042;-56
2022/10/03 02:20:27;;;;;;;11.70;7.28;;;16.10;85.70;;;;;;4994451;28;20436;-59
2022/10/03 02:22:56;;;;;;;13.40;8.10;;;16.00;85.80;;;;;;5007175;28;20436;-59
2022/10/03 02:25:40;;;;;;;12.82;7.35;;;15.80;86.80;;;;;;4993212;28;20062;-59
2022/10/03 02:28:21;;;;;;;19.30;8.20;;;15.90;86.70;;;;;;4997573;28;20057;-58
2022/10/03 02:31:27;;;;;;;13.18;8.55;;;15.90;86.30;;;;;;5011100;28;20084;-54
2022/10/03 02:34:28;;;;;;;14.13;6.82;;;16.10;85.70;;;;;;5006390;28;20034;-57
2022/10/03 02:37:12;;;;;;;11.63;7.45;;;15.80;86.50;;;;;;5083489;23;20049;-60
2022/10/03 02:40:16;;;;;;;17.13;8.77;;;15.70;86.90;;;;;;5035940;28;20432;-60
2022/10/03 02:43:06;;;;;;;19.10;9.93;;;15.70;89.40;;;;;;5026420;28;20033;-60
2022/10/03 02:45:58;;;;;;;20.60;9.30;;;15.70;88.50;;;;;;5030955;28;20037;-60
2022/10/03 02:48:35;;;;;;;19.05;9.70;;;15.80;88.60;;;;;;5043673;28;20033;-60
2022/10/03 02:51:13;;;;;;;12.52;9.18;;;15.80;89.20;;;;;;5042036;28;20029;-60
2022/10/03 02:53:51;;;;;;;16.65;8.93;;;15.70;89.50;;;;;;5032225;28;20080;-60
2022/10/03 02:56:41;;;;;;;15.60;9.85;;;15.80;88.50;;;;;;5042242;28;20491;-59
2022/10/03 02:59:25;;;;;;;14.93;8.68;;;15.90;88.70;;;;;;5051536;28;20506;-60
2022/10/03 03:02:09;;;;;;;17.20;9.68;;;16.00;87.70;;;;;;5044706;28;20029;-60
2022/10/03 03:05:02;;;;;;;20.30;10.27;;;16.00;87.10;;;;;;5052267;28;20025;-58
2022/10/03 03:07:46;;;;;;;15.80;9.57;;;16.10;86.60;;;;;;5051961;28;20029;-60
2022/10/03 03:10:15;;;;;;;21.75;10.68;;;16.10;86.20;;;;;;5053267;28;20090;-59
2022/10/03 03:12:59;;;;;;;14.43;9.80;;;16.10;86.20;;;;;;5054057;28;20406;-60
2022/10/03 03:16:03;;;;;;;18.50;10.52;;;16.10;86.10;;;;;;5040871;28;20436;-58
2022/10/03 03:18:45;;;;;;;21.83;12.05;;;16.10;86.20;;;;;;5072169;28;20025;-60
2022/10/03 03:21:56;;;;;;;14.43;12.35;;;16.10;86.10;;;;;;5056134;28;20281;-60
2022/10/03 03:24:50;;;;;;;16.92;11.60;;;16.10;86.00;;;;;;5037789;28;20034;-60
2022/10/03 03:27:28;;;;;;;17.13;11.60;;;16.10;86.30;;;;;;5032932;28;20037;-60
2022/10/03 03:30:07;;;;;;;16.13;12.60;;;16.00;86.20;;;;;;5048962;28;20033;-59
2022/10/03 03:32:47;;;;;;;18.63;11.05;;;16.00;86.20;;;;;;5049799;28;20028;-60
2022/10/03 03:35:19;;;;;;;13.63;11.35;;;16.00;86.20;;;;;;5033626;28;20480;-59
2022/10/03 03:38:13;;;;;;;28.15;14.75;;;16.00;86.00;;;;;;5039585;28;20025;-60
2022/10/03 03:40:52;;;;;;;20.83;14.77;;;16.10;86.00;;;;;;5044071;28;20021;-60
2022/10/03 03:43:36;;;;;;;20.30;15.35;;;16.00;85.90;;;;;;5048512;28;20029;-60
2022/10/03 03:46:20;;;;;;;23.02;13.60;;;16.00;86.10;;;;;;5033500;28;20056;-58
2022/10/03 03:49:07;;;;;;;15.75;12.32;;;15.90;85.90;;;;;;5052954;28;20539;-60
2022/10/03 03:51:51;;;;;;;20.33;12.47;;;16.00;85.70;;;;;;5053006;28;20315;-60
2022/10/03 03:54:50;;;;;;;18.42;12.38;;;15.90;85.40;;;;;;5038665;28;20495;-59
2022/10/03 03:57:28;;;;;;;17.63;12.45;;;15.90;85.30;;;;;;5033358;28;20438;-59
2022/10/03 04:00:16;;;;;;;20.00;13.48;;;15.90;85.20;;;;;;5033076;28;20076;-60
2022/10/03 04:02:41;;;;;;;18.90;14.40;;;15.90;85.00;;;;;;5031992;28;20041;-59
2022/10/03 04:05:13;;;;;;;14.65;12.93;;;15.90;85.00;;;;;;5033345;28;20022;-59
2022/10/03 04:08:11;;;;;;;22.10;15.02;;;15.80;85.00;;;;;;5033245;28;20034;-59
2022/10/03 04:10:49;;;;;;;24.08;15.38;;;15.80;85.20;;;;;;5032634;28;20018;-60
2022/10/03 04:13:42;;;;;;;19.48;14.52;;;15.70;85.40;;;;;;5033108;28;20029;-60
2022/10/03 04:18:56;;;;;;;14.90;11.05;;;15.80;85.50;;;;;;5032967;28;20507;-59
2022/10/03 04:19:39;;;;;;;12.95;11.63;;;15.80;85.10;;;;;;5032654;28;20265;-59
2022/10/03 04:22:32;;;;;;;15.35;12.05;;;15.80;84.60;;;;;;5027936;28;20041;-59
2022/10/03 04:25:19;;;;;;;15.15;12.90;;;15.70;84.80;;;;;;5032768;28;20033;-59
2022/10/03 04:28:05;;;;;;;14.93;12.52;;;15.70;85.10;;;;;;5032810;28;20044;-60
2022/10/03 04:30:50;;;;;;;21.98;13.82;;;15.70;85.10;;;;;;5032762;28;20018;-60
2022/10/03 04:33:34;;;;;;;15.75;14.05;;;15.70;85.00;;;;;;5031445;28;20037;-59
2022/10/03 04:36:37;;;;;;;21.92;18.05;;;15.70;85.00;;;;;;5032480;28;20042;-58
2022/10/03 04:39:41;;;;;;;23.38;15.90;;;15.80;85.00;;;;;;5032414;28;20109;-59
2022/10/03 04:42:45;;;;;;;24.73;20.90;;;15.80;85.00;;;;;;5032502;28;20021;-57
2022/10/03 04:45:22;;;;;;;25.08;19.90;;;15.80;85.40;;;;;;5028812;28;20079;-60
2022/10/03 04:47:55;;;;;;;;;;;15.80;85.60;;;;;;5031606;28;20099;-57
2022/10/03 04:50:57;;;;;;;22.10;16.80;;;15.70;85.40;;;;;;5030936;28;19905;-59
2022/10/03 04:53:44;;;;;;;19.10;16.23;;;15.70;85.10;;;;;;4998840;28;20047;-60
2022/10/03 04:56:16;;;;;;;23.20;17.93;;;15.60;85.30;;;;;;5030937;28;20057;-57
2022/10/03 04:58:59;;;;;;;22.38;18.30;;;15.60;85.30;;;;;;5030742;28;20105;-59
2022/10/03 05:01:25;;;;;;;24.48;19.15;;;15.60;85.30;;;;;;5032296;28;20021;-59
2022/10/03 05:04:19;;;;;;;31.08;21.90;;;15.70;85.40;;;;;;5032100;28;20032;-59
2022/10/03 05:06:51;;;;;;;23.67;18.38;;;15.70;85.70;;;;;;5005911;28;20033;-56
2022/10/03 05:09:22;;;;;;;26.30;15.98;;;15.60;85.80;;;;;;5031533;28;20107;-58
2022/10/03 05:12:32;;;;;;;22.10;16.95;;;15.30;86.10;;;;;;5032132;28;20034;-60
2022/10/03 05:15:09;;;;;;;;;;;15.30;86.40;;;;;;5020884;28;20037;-60
2022/10/03 05:18:00;;;;;;;27.10;18.73;;;15.30;86.30;;;;;;5031960;28;20295;-60
2022/10/03 05:20:42;;;;;;;22.55;18.52;;;15.40;86.00;;;;;;5031457;28;20056;-60
2022/10/03 05:23:11;;;;;;;29.27;18.55;;;15.50;85.70;;;;;;5031220;28;20025;-58
2022/10/03 05:25:56;;;;;;;47.80;18.83;;;15.60;85.50;;;;;;5031810;28;20026;-56
2022/10/03 05:28:40;;;;;;;28.73;17.58;;;15.60;85.30;;;;;;5030395;28;20099;-60
2022/10/03 05:31:20;;;;;;;29.95;19.88;;;15.60;84.90;;;;;;5034339;28;20033;-58
2022/10/03 05:34:09;;;;;;;30.73;18.95;;;15.70;84.70;;;;;;5048363;28;20085;-50
2022/10/03 05:36:55;;;;;;;26.45;18.63;;;15.70;84.70;;;;;;5050189;28;20095;-49
2022/10/03 05:39:44;;;;;;;25.73;19.25;;;15.70;84.60;;;;;;5051416;28;20457;-50
2022/10/03 05:42:35;;;;;;;20.85;17.58;;;15.70;84.40;;;;;;5051686;28;20070;-51
2022/10/03 05:45:20;;;;;;;18.55;16.65;;;15.70;84.70;;;;;;5051916;28;20079;-50
2022/10/03 05:48:13;;;;;;;22.45;16.88;;;15.50;84.40;;;;;;5051700;28;20100;-49
2022/10/03 05:50:58;;;;;;;21.42;18.08;;;15.40;84.90;;;;;;5051556;28;20091;-51
2022/10/03 05:53:24;;;;;;;28.75;22.35;;;15.30;85.70;;;;;;5051806;28;20480;-49
2022/10/03 05:55:49;;;;;;;28.25;20.60;;;15.40;86.20;;;;;;5051569;28;20029;-50
2022/10/03 05:58:26;;;;;;;30.85;23.08;;;15.40;86.30;;;;;;5051289;28;20029;-50
2022/10/03 06:00:56;;;;;;;23.80;19.88;;;15.50;86.20;;;;;;5050165;28;20488;-50
2022/10/03 06:03:59;;;;;;;28.00;20.73;;;15.50;86.90;;;;;;5050053;28;20491;-50
2022/10/03 06:06:50;;;;;;;26.40;21.58;;;15.50;86.70;;;;;;5006979;28;20048;-49
2022/10/03 06:09:53;;;;;;;28.10;20.40;;;15.40;87.40;;;;;;5051193;28;20029;-49
2022/10/03 06:12:47;;;;;;;25.88;23.08;;;15.50;87.40;;;;;;5010339;28;20041;-49
2022/10/03 06:15:12;;;;;;;25.92;23.05;;;15.60;87.30;;;;;;5051229;28;20476;-50
2022/10/03 06:18:22;;;;;;;26.08;21.65;;;15.70;86.80;;;;;;5050087;28;20178;-49
2022/10/03 06:21:06;;;;;;;31.30;24.40;;;15.70;86.90;;;;;;5033946;28;20422;-51
2022/10/03 06:24:10;;;;;;;24.90;19.92;;;15.70;88.60;;;;;;5051262;28;20017;-51
2022/10/03 06:26:49;;;;;;;33.10;23.38;;;15.40;89.60;;;;;;5024413;28;20108;-49
2022/10/03 06:29:34;;;;;;;26.42;23.30;;;15.40;89.90;;;;;;5029948;28;20030;-61
2022/10/03 06:32:21;;;;;;;32.35;24.73;;;15.40;90.20;;;;;;5030402;28;20128;-60
2022/10/03 06:35:20;;;;;;;33.47;27.98;;;15.60;89.30;;;;;;5033513;28;20048;-60
2022/10/03 06:37:55;;;;;;;35.90;26.20;;;15.80;88.70;;;;;;5033695;28;20430;-61
2022/10/03 06:40:36;;;;;;;35.03;27.40;;;15.90;88.20;;;;;;5034704;28;20452;-59
2022/10/03 06:43:15;;;;;;;34.10;27.15;;;16.00;88.10;;;;;;5034518;28;20513;-60
2022/10/03 06:46:03;;;;;;;41.88;28.35;;;16.10;88.00;;;;;;5034727;28;20024;-57
2022/10/03 06:49:02;;;;;;;38.00;28.70;;;16.20;88.10;;;;;;5034643;28;20033;-56
2022/10/03 06:51:46;;;;;;;42.30;30.52;;;16.20;88.20;;;;;;5034810;28;20522;-58
2022/10/03 06:54:44;;;;;;;36.92;30.67;;;16.30;88.50;;;;;;5034683;28;20487;-57
2022/10/03 06:57:36;;;;;;;34.15;28.83;;;16.40;89.20;;;;;;5002087;28;20061;-56
2022/10/03 07:00:37;;;;;;;38.65;31.23;;;16.40;88.60;;;;;;5034422;28;20025;-55
2022/10/03 07:03:13;;;;;;;34.85;29.67;;;16.50;88.50;;;;;;5034636;28;20034;-57
2022/10/03 07:05:59;;;;;;;39.47;31.42;;;16.50;89.10;;;;;;5034388;28;20026;-58
2022/10/03 07:08:30;;;;;;;41.83;30.80;;;16.60;89.20;;;;;;5039710;28;20034;-58
2022/10/03 07:11:27;;;;;;;37.78;30.98;;;16.70;88.80;;;;;;5034356;28;20391;-60
2022/10/03 07:14:24;;;;;;;40.35;33.28;;;16.60;90.30;;;;;;5033143;28;20430;-60
2022/10/03 07:17:27;;;;;;;38.58;33.20;;;16.70;90.30;;;;;;5034205;28;20033;-60
2022/10/03 07:20:05;;;;;;;43.40;32.60;;;16.80;90.30;;;;;;5032841;28;20025;-61
2022/10/03 07:22:34;;;;;;;42.72;31.88;;;16.80;90.40;;;;;;5032884;28;20061;-60
2022/10/03 07:25:33;;;;;;;38.83;32.17;;;16.90;90.30;;;;;;5034169;28;20064;-60
2022/10/03 07:28:08;;;;;;;35.25;29.63;;;17.00;90.90;;;;;;5032655;28;20120;-60
2022/10/03 07:30:59;;;;;;;43.35;32.45;;;17.00;90.70;;;;;;5033949;28;20033;-57
2022/10/03 07:33:47;;;;;;;39.65;32.42;;;17.10;90.90;;;;;;5034028;28;20096;-58
2022/10/03 07:39:32;;;;;;;38.20;31.73;;;17.20;90.80;;;;;;5033723;28;20113;-57
2022/10/03 07:42:16;;;;;;;39.08;32.67;;;17.40;90.30;;;;;;5033702;28;20052;-58
2022/10/03 07:45:07;;;;;;;46.30;34.65;;;17.40;90.30;;;;;;5032857;28;20029;-59
2022/10/03 07:47:48;;;;;;;44.40;35.03;;;17.50;90.40;;;;;;5033586;28;20056;-60
2022/10/03 07:50:23;;;;;;;39.28;33.72;;;17.50;90.70;;;;;;5033549;28;20554;-59
2022/10/03 07:52:59;;;;;;;44.60;35.90;;;17.60;90.70;;;;;;5033445;28;20057;-59
2022/10/03 07:55:45;;;;;;;42.50;32.97;;;17.70;90.70;;;;;;5033404;28;20017;-59
2022/10/03 07:58:32;;;;;;;42.40;32.50;;;17.70;90.50;;;;;;5033250;28;20476;-58
2022/10/03 08:01:08;;;;;;;42.45;32.97;;;17.80;90.50;;;;;;5033533;28;20339;-59
2022/10/03 08:04:11;;;;;;;36.38;30.25;;;18.00;90.10;;;;;;5033307;28;20021;-56
2022/10/03 08:06:43;;;;;;;39.67;31.48;;;18.10;89.10;;;;;;5033163;28;20025;-58
2022/10/03 08:09:30;;;;;;;39.38;30.80;;;18.20;89.20;;;;;;5031744;28;20026;-57
2022/10/03 08:12:17;;;;;;;39.63;30.40;;;18.00;89.80;;;;;;5031845;28;20021;-60
2022/10/03 08:14:52;;;;;;;42.38;30.58;;;18.10;90.30;;;;;;5033001;28;20072;-60
2022/10/03 08:17:35;;;;;;;38.63;29.90;;;18.20;90.20;;;;;;5033121;28;20026;-60
2022/10/03 08:20:14;;;;;;;36.53;30.17;;;18.30;90.20;;;;;;5032888;28;20495;-60
2022/10/03 08:23:33;;;;;;;39.60;31.35;;;18.30;89.20;;;;;;5032981;28;20022;-57
2022/10/03 08:26:01;;;;;;;40.23;30.87;;;18.50;89.50;;;;;;5010690;28;20083;-55
2022/10/03 08:28:30;;;;;;;35.15;29.67;;;18.50;88.90;;;;;;5031163;28;20129;-58
2022/10/03 08:31:54;;;;;;;37.00;29.48;;;18.60;88.50;;;;;;5032672;28;20503;-57
2022/10/03 08:34:38;;;;;;;34.40;30.02;;;18.80;87.90;;;;;;5010637;28;20084;-57
2022/10/03 08:37:06;;;;;;;36.60;30.42;;;19.00;87.20;;;;;;5052945;23;20137;-59
2022/10/03 08:39:51;;;;;;;37.80;29.67;;;19.10;87.10;;;;;;5051947;28;20071;-58
2022/10/03 08:42:54;;;;;;;37.15;28.42;;;19.20;86.90;;;;;;5051589;28;20451;-59
2022/10/03 08:45:49;;;;;;;35.42;27.75;;;19.30;86.10;;;;;;5052349;28;20029;-60
2022/10/03 08:48:45;;;;;;;34.00;27.77;;;19.20;85.90;;;;;;5051024;28;20031;-58
2022/10/03 08:51:33;;;;;;;35.88;28.27;;;19.30;86.30;;;;;;5051093;28;20120;-58
2022/10/03 08:54:04;;;;;;;35.55;25.45;;;19.40;86.40;;;;;;5052310;28;20387;-58
2022/10/03 08:56:44;;;;;;;29.83;24.98;;;19.60;86.20;;;;;;5052117;28;20045;-58
2022/10/03 08:59:47;;;;;;;29.63;24.27;;;19.70;85.60;;;;;;5052129;28;20017;-58
2022/10/03 09:02:19;;;;;;;33.30;24.70;;;19.80;85.20;;;;;;5039466;28;20130;-57
2022/10/03 09:05:15;;;;;;;28.25;20.35;;;19.80;85.40;;;;;;5052052;28;20032;-57
2022/10/03 09:08:02;;;;;;;27.90;21.05;;;20.00;85.00;;;;;;5052214;28;20052;-57
2022/10/03 09:10:31;;;;;;;24.77;19.37;;;20.10;84.80;;;;;;5051876;28;20025;-57
2022/10/03 09:13:34;;;;;;;25.25;19.23;;;20.20;84.10;;;;;;5051837;28;20276;-57
2022/10/03 09:16:21;;;;;;;25.50;19.38;;;20.30;82.10;;;;;;5051830;28;20033;-57
2022/10/03 09:19:03;;;;;;;23.83;18.60;;;20.30;81.90;;;;;;5051755;28;20024;-57
2022/10/03 09:22:06;;;;;;;24.10;19.02;;;20.30;81.80;;;;;;5051879;28;20029;-57
2022/10/03 09:25:05;;;;;;;30.52;18.90;;;20.30;80.70;;;;;;5051727;28;20025;-59
2022/10/03 09:28:08;;;;;;;26.58;20.40;;;20.30;80.20;;;;;;5051811;28;20039;-59
2022/10/03 09:31:12;;;;;;;31.42;20.85;;;20.40;80.80;;;;;;5050421;28;20526;-58
2022/10/03 09:33:56;;;;;;;27.98;20.45;;;20.50;80.90;;;;;;5047602;28;20044;-60
2022/10/03 09:36:46;;;;;;;24.08;19.30;;;20.60;80.30;;;;;;5050221;28;20079;-57
2022/10/03 09:39:20;;;;;;;28.50;19.60;;;20.70;79.80;;;;;;5050136;28;20021;-57
2022/10/03 09:42:05;;;;;;;23.10;17.85;;;20.70;79.80;;;;;;5051531;28;20472;-59
2022/10/03 09:45:09;;;;;;;20.90;16.92;;;20.80;79.60;;;;;;5051467;28;20025;-58
2022/10/03 09:47:38;;;;;;;20.48;16.20;;;20.90;79.20;;;;;;5032827;28;20033;-59
2022/10/03 09:50:27;;;;;;;23.73;17.52;;;20.90;78.60;;;;;;5051304;28;20487;-59
2022/10/03 09:53:05;;;;;;;25.58;17.50;;;20.90;77.40;;;;;;5051319;28;20029;-58
2022/10/03 09:55:50;;;;;;;;;;;21.00;78.30;;;;;;5051884;28;20424;-60
2022/10/03 09:58:42;;;;;;;21.55;16.58;;;20.90;77.10;;;;;;5051181;28;19905;-60
2022/10/03 10:01:20;;;;;;;20.17;14.98;;;20.90;77.00;;;;;;5037246;28;20165;-59
2022/10/03 10:03:45;;;;;;;;;;;21.00;77.40;;;;;;5051866;28;20479;-57
2022/10/03 10:06:48;;;;;;;26.83;17.35;;;21.20;77.00;;;;;;5051162;28;19904;-56
2022/10/03 10:09:25;;;;;;;27.88;18.42;;;21.30;77.00;;;;;;5054099;28;20028;-57
2022/10/03 10:12:19;;;;;;;23.55;16.60;;;21.40;77.30;;;;;;5055429;28;20099;-59
2022/10/03 10:15:21;;;;;;;23.92;17.30;;;21.50;77.50;;;;;;5054332;28;20024;-57
2022/10/03 10:18:10;;;;;;;21.73;16.02;;;21.60;75.40;;;;;;5037370;28;20036;-58
2022/10/03 10:21:22;;;;;;;26.55;16.48;;;21.60;74.70;;;;;;5035824;28;20022;-59
2022/10/03 10:23:51;;;;;;;21.95;15.70;;;21.50;72.60;;;;;;5027575;28;20033;-60
2022/10/03 10:26:52;;;;;;;20.42;14.60;;;21.40;74.40;;;;;;5051719;28;20033;-58
2022/10/03 10:29:35;;;;;;;21.40;15.48;;;21.60;72.90;;;;;;5052361;28;20479;-58
2022/10/03 10:32:13;;;;;;;22.90;16.38;;;21.60;72.10;;;;;;5036258;28;20033;-58
2022/10/03 10:34:54;;;;;;;18.00;14.80;;;21.70;74.10;;;;;;5035064;28;20139;-55
2022/10/03 10:37:40;;;;;;;22.90;15.18;;;21.90;74.00;;;;;;5042389;28;20039;-53
2022/10/03 10:40:27;;;;;;;20.13;15.77;;;22.10;73.70;;;;;;5045566;28;20096;-52
2022/10/03 10:43:29;;;;;;;18.27;13.63;;;22.30;72.80;;;;;;5035689;28;20484;-53
2022/10/03 10:46:19;;;;;;;21.85;14.18;;;22.30;70.30;;;;;;5033664;28;20502;-56
2022/10/03 10:49:06;;;;;;;21.33;14.45;;;22.20;72.00;;;;;;5040624;28;20021;-52
2022/10/03 10:52:00;;;;;;;21.38;14.32;;;22.20;71.60;;;;;;5044888;28;20495;-53
2022/10/03 10:55:23;;;;;;;21.65;14.77;;;22.40;72.20;;;;;;5053206;28;20029;-53
2022/10/03 10:58:07;;;;;;;17.23;13.48;;;22.40;69.80;;;;;;4972781;28;20453;-52
2022/10/03 11:01:09;;;;;;;21.10;13.57;;;22.50;70.90;;;;;;4973253;28;20030;-52
2022/10/03 11:04:22;;;;;;;19.90;12.93;;;22.60;70.30;;;;;;5024544;28;20396;-56
2022/10/03 11:07:10;;;;;;;15.75;12.18;;;22.70;68.90;;;;;;4959017;28;20041;-55
2022/10/03 11:10:06;;;;;;;21.17;15.05;;;22.80;68.40;;;;;;4953665;28;20057;-55
2022/10/03 11:13:03;;;;;;;22.83;12.85;;;22.80;68.50;;;;;;5036839;28;20101;-53
2022/10/03 11:16:06;;;;;;;18.52;13.60;;;22.80;69.30;;;;;;5041786;28;20021;-60
2022/10/03 11:18:50;;;;;;;19.88;12.65;;;22.90;71.50;;;;;;5065120;28;20049;-59
2022/10/03 11:21:25;;;;;;;18.88;12.80;;;23.00;70.00;;;;;;5042217;28;20033;-63
2022/10/03 11:24:00;;;;;;;28.20;13.27;;;23.20;69.70;;;;;;5040653;28;20040;-60
2022/10/03 11:27:07;;;;;;;18.98;13.02;;;23.40;68.80;;;;;;5034365;28;20103;-60
2022/10/03 11:29:42;;;;;;;20.73;12.85;;;23.50;67.90;;;;;;5036004;28;20036;-60
2022/10/03 11:32:29;;;;;;;17.08;12.30;;;23.60;67.40;;;;;;5039281;28;20029;-58
2022/10/03 11:35:45;;;;;;;20.80;13.02;;;23.50;66.60;;;;;;5053853;28;20032;-55
2022/10/03 11:38:24;;;;;;;19.30;12.10;;;23.70;66.60;;;;;;4993082;28;20052;-56
2022/10/03 11:41:11;;;;;;;18.30;12.18;;;23.80;65.80;;;;;;5053399;28;20456;-56
2022/10/03 11:44:12;;;;;;;24.60;19.65;;;23.90;65.50;;;;;;5040037;28;20021;-56
2022/10/03 11:47:07;;;;;;;75.88;68.25;;;24.00;65.20;;;;;;5050152;28;20034;-57
2022/10/03 11:49:51;;;;;;;19.35;13.45;;;24.10;65.40;;;;;;5044118;28;20096;-60
2022/10/03 11:52:26;;;;;;;19.60;13.18;;;24.00;65.70;;;;;;5053559;28;20037;-59
2022/10/03 11:55:18;;;;;;;17.27;13.32;;;24.00;65.20;;;;;;5049471;28;20499;-58
2022/10/03 11:58:02;;;;;;;16.23;12.50;;;23.90;64.70;;;;;;5031865;28;20515;-58
2022/10/03 12:00:32;;;;;;;18.23;12.52;;;23.90;65.60;;;;;;5033494;28;20097;-59
2022/10/03 12:03:18;;;;;;;18.55;11.88;;;24.00;66.30;;;;;;5051502;28;20021;-58
2022/10/03 12:09:08;;;;;;;15.88;12.68;;;24.20;64.90;;;;;;5034576;28;20048;-59
2022/10/03 12:11:57;;;;;;;22.60;12.77;;;24.30;64.60;;;;;;5032201;28;20041;-58
2022/10/03 12:14:32;;;;;;;18.63;13.63;;;24.20;65.20;;;;;;5034340;28;20158;-60
2022/10/03 12:17:06;;;;;;;20.08;14.38;;;24.30;65.20;;;;;;5034970;28;20057;-59
2022/10/03 12:20:14;;;;;;;19.52;13.52;;;24.30;63.40;;;;;;5032983;28;20032;-60
2022/10/03 12:22:45;;;;;;;20.23;12.85;;;24.30;63.70;;;;;;5046140;28;20036;-60
2022/10/03 12:25:25;;;;;;;18.55;13.07;;;24.30;64.20;;;;;;5053005;28;20029;-58
2022/10/03 12:27:56;;;;;;;19.20;14.68;;;24.50;64.20;;;;;;5036279;28;20497;-59
2022/10/03 12:30:23;;;;;;;21.77;13.45;;;24.50;63.30;;;;;;5032624;28;20029;-58
2022/10/03 12:33:07;;;;;;;;;;;24.50;63.50;;;;;;5049188;28;20082;-60
2022/10/03 12:35:39;;;;;;;15.60;11.75;;;24.70;63.20;;;;;;5039719;28;19999;-59
2022/10/03 12:38:20;;;;;;;14.95;11.98;;;24.80;61.60;;;;;;5039117;28;20502;-60
2022/10/03 12:41:04;;;;;;;16.20;10.85;;;25.00;59.50;;;;;;5052323;28;20104;-59
2022/10/03 12:43:42;;;;;;;16.83;10.82;;;25.10;60.00;;;;;;5052705;28;20036;-59
2022/10/03 12:46:38;;;;;;;14.02;9.35;;;25.30;57.90;;;;;;5050515;28;20449;-59
2022/10/03 12:49:23;;;;;;;14.77;8.70;;;25.60;56.00;;;;;;5039988;28;20505;-60
2022/10/03 12:52:05;;;;;;;19.88;8.52;;;26.10;56.90;;;;;;5052185;28;20033;-60
2022/10/03 12:54:51;;;;;;;10.25;8.93;;;26.60;56.50;;;;;;5051159;28;20052;-59
2022/10/03 12:57:49;;;;;;;12.23;10.68;;;26.80;55.90;;;;;;5050315;28;20390;-58
2022/10/03 13:00:27;;;;;;;18.00;10.82;;;26.80;54.40;;;;;;5050482;28;20142;-58
2022/10/03 13:03:14;;;;;;;15.60;10.55;;;26.60;53.60;;;;;;5034992;28;20029;-60
2022/10/03 13:05:42;;;;;;;15.30;11.35;;;26.60;55.00;;;;;;5032293;28;20033;-58
2022/10/03 13:08:33;;;;;;;12.75;9.80;;;26.70;55.10;;;;;;5049076;28;20033;-59
2022/10/03 13:11:13;;;;;;;18.67;10.75;;;26.80;52.20;;;;;;5039367;28;20036;-59
2022/10/03 13:14:06;;;;;;;12.40;8.63;;;26.70;54.30;;;;;;5050040;28;20028;-60
2022/10/03 13:16:58;;;;;;;11.75;9.10;;;26.90;51.00;;;;;;5045490;28;20108;-59
2022/10/03 13:19:42;;;;;;;12.15;8.23;;;27.10;52.00;;;;;;5046929;28;20514;-60
2022/10/03 13:22:19;;;;;;;10.50;8.32;;;27.30;52.50;;;;;;5052033;28;20037;-60
2022/10/03 13:25:23;;;;;;;11.80;7.65;;;27.40;51.90;;;;;;5049793;28;20035;-59
2022/10/03 13:28:00;;;;;;;9.85;8.55;;;27.30;49.90;;;;;;5031917;28;20044;-63
2022/10/03 13:30:40;;;;;;;10.27;6.85;;;27.10;50.60;;;;;;5048876;28;20542;-63
2022/10/03 13:33:21;;;;;;;94.22;84.53;;;27.30;50.90;;;;;;5041561;28;20103;-62
2022/10/03 13:36:02;;;;;;;10.18;8.18;;;27.90;50.60;;;;;;5041066;28;20451;-62
2022/10/03 13:38:46;;;;;;;12.45;7.47;;;28.80;49.80;;;;;;5042872;28;20086;-63
2022/10/03 13:41:38;;;;;;;12.70;9.52;;;29.80;48.60;;;;;;5050681;28;20029;-64
2022/10/03 13:44:19;;;;;;;11.98;7.85;;;30.70;45.20;;;;;;5049638;28;20028;-64
2022/10/03 13:47:03;;;;;;;10.98;7.63;;;31.60;43.10;;;;;;5050289;28;20488;-63
2022/10/03 13:49:34;;;;;;;13.77;8.70;;;32.20;42.40;;;;;;5050056;28;20033;-64
2022/10/03 13:52:09;;;;;;;14.30;7.80;;;32.70;42.10;;;;;;5056099;28;20039;-64
2022/10/03 13:54:44;;;;;;;9.82;7.30;;;33.20;39.80;;;;;;5070025;28;20044;-64
2022/10/03 13:57:31;;;;;;;10.32;8.00;;;33.70;40.10;;;;;;5071462;28;20025;-64
2022/10/03 14:00:03;;;;;;;11.90;8.13;;;34.50;37.50;;;;;;5051102;28;20139;-61
2022/10/03 14:02:50;;;;;;;8.07;7.00;;;34.90;39.30;;;;;;5032103;28;20508;-61
2022/10/03 14:05:44;;;;;;;10.60;6.95;;;35.20;37.90;;;;;;5031459;28;20053;-60
2022/10/03 14:08:57;;;;;;;10.80;6.70;;;35.30;38.00;;;;;;5035129;28;20035;-60
2022/10/03 14:11:51;;;;;;;9.40;7.10;;;35.60;37.40;;;;;;5031685;28;20043;-62
2022/10/03 14:14:44;;;;;;;10.88;6.82;;;35.40;35.30;;;;;;5050923;28;20033;-60